createdAt,value
2023-05-03T15:03:41.296Z,16.31
2023-05-03T15:13:48.623Z,16.12
2023-05-03T15:23:55.538Z,15.94
2023-05-03T15:34:02.997Z,15.56
2023-05-03T15:44:11.066Z,15.81
2023-05-03T15:54:17.525Z,15.54
2023-05-03T16:04:42.729Z,15.01
2023-05-03T16:14:49.529Z,15.10
2023-05-03T16:24:56.040Z,15.05
2023-05-03T16:35:04.815Z,14.83
2023-05-03T16:45:12.133Z,14.91
2023-05-03T16:55:23.261Z,14.63
2023-05-03T17:05:34.276Z,14.46
2023-05-03T17:15:40.751Z,14.20
2023-05-03T17:25:47.327Z,14.23
2023-05-03T17:35:54.572Z,13.90
2023-05-03T17:46:12.669Z,13.82
2023-05-03T17:56:20.050Z,13.60
2023-05-03T18:06:26.695Z,13.45
2023-05-03T18:16:33.741Z,13.89
2023-05-03T18:26:40.247Z,12.92
2023-05-03T18:36:46.780Z,12.58
2023-05-03T18:46:53.798Z,12.12
2023-05-03T18:57:04.149Z,11.93
2023-05-03T19:07:11.772Z,11.76
2023-05-03T19:17:18.310Z,11.39
2023-05-03T19:27:24.743Z,11.11
2023-05-03T19:37:32.418Z,10.85
2023-05-03T19:47:39.190Z,10.42
2023-05-03T19:57:45.715Z,9.95
2023-05-03T20:07:53.988Z,9.85
2023-05-03T20:18:00.494Z,9.64
2023-05-03T20:28:06.957Z,9.10
2023-05-03T20:38:13.482Z,8.97
2023-05-03T20:48:20.101Z,8.53
2023-05-03T20:58:26.617Z,8.38
2023-05-03T21:08:33.165Z,8.21
2023-05-03T21:18:39.630Z,8.07
2023-05-03T21:28:46.089Z,8.08
2023-05-03T21:38:53.136Z,8.12
2023-05-03T21:48:59.745Z,7.79
2023-05-03T21:59:06.990Z,7.74
2023-05-03T22:09:13.562Z,7.41
2023-05-03T22:19:20.021Z,7.49
2023-05-03T22:29:26.683Z,7.28
2023-05-03T22:39:33.601Z,7.47
2023-05-03T22:49:40.087Z,7.30
2023-05-03T22:59:47.070Z,7.24
2023-05-03T23:10:03.074Z,7.10
2023-05-03T23:20:11.370Z,7.07
2023-05-03T23:30:17.905Z,6.97
2023-05-03T23:40:25.351Z,6.85
2023-05-03T23:50:32.191Z,6.74
